createdAt,value
2023-03-27T00:01:12.804Z,0.80
2023-03-27T00:03:40.628Z,0.90
2023-03-27T00:06:16.303Z,0.93
2023-03-27T00:08:44.547Z,0.70
2023-03-27T00:11:12.083Z,0.82
2023-03-27T00:13:49.177Z,1.08
2023-03-27T00:16:22.459Z,0.60
2023-03-27T00:18:49.814Z,0.70
2023-03-27T00:21:17.220Z,0.82
2023-03-27T00:23:44.569Z,1.15
2023-03-27T00:26:12.497Z,0.85
2023-03-27T00:28:39.925Z,1.00
2023-03-27T00:31:11.647Z,0.80
2023-03-27T00:33:39.426Z,0.80
2023-03-27T00:36:07.198Z,0.77
2023-03-27T00:38:34.521Z,1.08
2023-03-27T00:41:02.281Z,0.98
2023-03-27T00:43:34.034Z,0.70
2023-03-27T00:46:31.818Z,0.90
2023-03-27T00:49:01.826Z,0.90
2023-03-27T00:51:29.190Z,0.80
2023-03-27T00:53:56.648Z,0.70
2023-03-27T00:56:24.194Z,0.90
2023-03-27T00:58:57.201Z,0.80
2023-03-27T01:01:27.175Z,0.70
2023-03-27T01:03:54.872Z,0.73
2023-03-27T01:06:22.441Z,1.00
2023-03-27T01:08:49.853Z,0.75
2023-03-27T01:11:39.352Z,0.73
2023-03-27T01:14:27.077Z,1.23
2023-03-27T01:17:00.344Z,0.80
2023-03-27T01:19:48.766Z,0.77
2023-03-27T01:22:27.927Z,0.98
2023-03-27T01:25:17.252Z,0.80
2023-03-27T01:28:10.645Z,0.98
2023-03-27T01:30:57.109Z,1.00
2023-03-27T01:33:46.626Z,0.93
2023-03-27T01:36:22.245Z,1.10
2023-03-27T01:39:19.808Z,0.90
2023-03-27T01:42:01.621Z,1.00
2023-03-27T01:44:45.828Z,0.80
2023-03-27T01:47:40.984Z,0.80
2023-03-27T01:50:17.594Z,0.82
2023-03-27T01:52:49.462Z,1.08
2023-03-27T01:55:19.459Z,0.90
2023-03-27T01:57:50.656Z,0.80
2023-03-27T02:00:22.542Z,1.00
2023-03-27T02:02:56.471Z,0.80
2023-03-27T02:05:31.962Z,0.90
2023-03-27T02:08:03.996Z,1.40
2023-03-27T02:10:34.077Z,1.00
2023-03-27T02:13:21.424Z,0.80
2023-03-27T02:15:49.936Z,0.93
2023-03-27T02:18:23.685Z,0.88
2023-03-27T02:20:51.033Z,0.60
2023-03-27T02:23:18.424Z,0.90
2023-03-27T02:25:46.078Z,0.80
2023-03-27T02:28:34.970Z,0.98
2023-03-27T02:31:32.632Z,1.00
2023-03-27T02:34:02.120Z,0.90
2023-03-27T02:36:41.565Z,0.90
2023-03-27T02:39:51.418Z,1.10
2023-03-27T02:42:55.919Z,1.00
2023-03-27T02:45:41.382Z,1.00
2023-03-27T02:48:12.217Z,0.85
2023-03-27T02:50:48.762Z,0.95
2023-03-27T02:53:17.499Z,1.00
2023-03-27T02:55:50.563Z,1.00
2023-03-27T02:58:20.883Z,1.00
2023-03-27T03:00:58.221Z,1.00
2023-03-27T03:03:57.601Z,0.98
2023-03-27T03:06:45.492Z,1.20
2023-03-27T03:09:14.903Z,0.95
2023-03-27T03:11:50.137Z,1.00
2023-03-27T03:14:18.941Z,1.08
2023-03-27T03:16:46.666Z,0.80
2023-03-27T03:19:14.761Z,1.08
2023-03-27T03:21:42.572Z,0.88
2023-03-27T03:24:12.964Z,1.10
2023-03-27T03:26:40.374Z,1.00
2023-03-27T03:29:07.834Z,1.05
2023-03-27T03:31:44.415Z,1.10
2023-03-27T03:34:16.764Z,1.15
2023-03-27T03:36:49.231Z,1.00
2023-03-27T03:39:19.778Z,1.30
2023-03-27T03:41:49.997Z,1.20
2023-03-27T03:44:17.591Z,1.20
2023-03-27T03:46:45.024Z,1.30
2023-03-27T03:49:12.501Z,1.30
2023-03-27T03:51:39.901Z,1.30
2023-03-27T03:54:09.136Z,1.10
2023-03-27T03:56:37.173Z,1.05
2023-03-27T03:59:04.609Z,1.20
2023-03-27T04:01:33.617Z,1.30
2023-03-27T04:04:02.664Z,1.40
2023-03-27T04:06:47.537Z,1.27
2023-03-27T04:09:15.110Z,1.20
2023-03-27T04:11:57.728Z,1.30
2023-03-27T04:14:42.219Z,1.30
2023-03-27T04:17:28.590Z,1.40
2023-03-27T04:19:57.518Z,1.52
2023-03-27T04:22:26.275Z,1.50
2023-03-27T04:24:53.829Z,1.55
2023-03-27T04:27:23.097Z,1.35
2023-03-27T04:30:02.333Z,1.92
2023-03-27T04:33:00.031Z,1.80
2023-03-27T04:36:06.016Z,1.63
2023-03-27T04:38:58.101Z,1.90
2023-03-27T04:41:29.775Z,1.95
2023-03-27T04:43:57.456Z,2.00
2023-03-27T04:46:24.981Z,2.20
2023-03-27T04:48:59.049Z,1.50
2023-03-27T04:51:48.008Z,1.30
2023-03-27T04:54:15.670Z,1.40
2023-03-27T04:56:46.552Z,1.20
2023-03-27T04:59:15.632Z,1.10
2023-03-27T05:01:44.723Z,1.00
2023-03-27T05:04:32.491Z,1.00
2023-03-27T05:07:15.710Z,1.30
2023-03-27T05:09:43.066Z,1.20
2023-03-27T05:12:10.937Z,1.20
2023-03-27T05:14:49.097Z,1.20
2023-03-27T05:17:33.138Z,1.20
2023-03-27T05:20:00.832Z,1.10
2023-03-27T05:22:28.183Z,1.00
2023-03-27T05:25:05.275Z,1.00
2023-03-27T05:27:32.706Z,1.00
2023-03-27T05:30:00.437Z,1.45
2023-03-27T05:32:27.776Z,0.93
2023-03-27T05:35:18.184Z,2.15
2023-03-27T05:37:47.715Z,1.10
2023-03-27T05:40:28.076Z,1.05
2023-03-27T05:42:56.140Z,1.00
2023-03-27T05:45:27.550Z,1.20
2023-03-27T05:47:57.001Z,1.10
2023-03-27T05:50:28.272Z,1.58
2023-03-27T05:53:16.118Z,1.42
2023-03-27T05:56:02.945Z,1.30
2023-03-27T05:58:38.694Z,1.48
2023-03-27T06:01:07.303Z,1.15
2023-03-27T06:03:35.669Z,1.40
2023-03-27T06:06:11.432Z,1.40
2023-03-27T06:08:39.888Z,1.55
2023-03-27T06:11:10.274Z,1.88
2023-03-27T06:13:44.226Z,1.67
2023-03-27T06:16:15.674Z,1.55
2023-03-27T06:18:43.044Z,1.60
2023-03-27T06:21:12.346Z,1.25
2023-03-27T06:23:40.042Z,1.52
2023-03-27T06:26:12.304Z,1.65
2023-03-27T06:28:39.838Z,2.03
2023-03-27T06:31:08.863Z,1.73
2023-03-27T06:33:55.104Z,1.92
2023-03-27T06:36:42.635Z,1.80
2023-03-27T06:39:12.048Z,1.90
2023-03-27T06:41:42.936Z,1.70
2023-03-27T06:44:19.729Z,1.40
2023-03-27T06:47:01.455Z,1.30
2023-03-27T06:49:33.495Z,1.40
2023-03-27T06:52:09.577Z,1.50
2023-03-27T06:54:36.967Z,1.50
2023-03-27T06:57:04.493Z,1.40
2023-03-27T07:00:00.269Z,1.20
2023-03-27T07:03:09.732Z,1.40
2023-03-27T07:05:57.641Z,1.60
2023-03-27T07:08:28.444Z,1.50
2023-03-27T07:11:10.764Z,1.50
2023-03-27T07:13:43.787Z,1.50
2023-03-27T07:16:20.702Z,1.15
2023-03-27T07:18:48.249Z,1.42
2023-03-27T07:21:15.967Z,1.20
2023-03-27T07:23:43.818Z,1.50
2023-03-27T07:26:13.890Z,1.25
2023-03-27T07:29:00.947Z,1.40
2023-03-27T07:31:45.111Z,1.48
2023-03-27T07:34:17.944Z,1.52
2023-03-27T07:37:03.720Z,1.40
2023-03-27T07:39:32.202Z,1.58
2023-03-27T07:42:00.147Z,1.55
2023-03-27T07:44:33.100Z,1.60
2023-03-27T07:47:04.873Z,1.60
2023-03-27T07:49:40.107Z,1.40
2023-03-27T07:52:14.726Z,1.65
2023-03-27T07:54:52.178Z,2.10
2023-03-27T07:57:22.819Z,1.90
2023-03-27T07:59:54.494Z,2.17
2023-03-27T08:02:31.884Z,2.15
2023-03-27T08:04:59.757Z,2.13
2023-03-27T08:07:27.129Z,3.00
2023-03-27T08:09:58.549Z,3.28
2023-03-27T08:12:26.029Z,3.20
2023-03-27T08:15:00.146Z,3.30
2023-03-27T08:17:30.430Z,4.00
2023-03-27T08:19:58.297Z,4.78
2023-03-27T08:22:26.067Z,4.43
2023-03-27T08:25:16.803Z,4.65
2023-03-27T08:27:44.902Z,5.28
2023-03-27T08:30:16.708Z,5.47
2023-03-27T08:32:44.726Z,4.75
2023-03-27T08:35:12.559Z,4.40
2023-03-27T08:37:41.548Z,4.43
2023-03-27T08:40:34.123Z,4.75
2023-03-27T08:43:22.711Z,4.55
2023-03-27T08:46:01.890Z,4.25
2023-03-27T08:48:31.315Z,3.97
2023-03-27T08:51:12.270Z,3.90
2023-03-27T08:53:44.145Z,4.18
2023-03-27T08:56:15.971Z,4.80
2023-03-27T08:58:45.410Z,5.22
2023-03-27T09:01:45.432Z,6.25
2023-03-27T09:04:39.466Z,7.55
2023-03-27T09:07:19.295Z,7.60
2023-03-27T09:10:17.481Z,7.47
2023-03-27T09:13:09.890Z,7.55
2023-03-27T09:15:42.586Z,8.00
2023-03-27T09:18:27.943Z,7.78
2023-03-27T09:20:57.813Z,8.02
2023-03-27T09:23:31.033Z,8.40
2023-03-27T09:26:28.721Z,7.93
2023-03-27T09:29:25.957Z,8.57
2023-03-27T09:32:01.956Z,7.50
2023-03-27T09:34:32.541Z,7.70
2023-03-27T09:37:00.835Z,6.82
2023-03-27T09:39:33.932Z,7.55
2023-03-27T09:42:26.651Z,6.90
2023-03-27T09:44:56.849Z,6.90
2023-03-27T09:47:32.071Z,6.82
2023-03-27T09:50:18.387Z,6.75
2023-03-27T09:53:10.003Z,6.25
2023-03-27T09:55:59.598Z,6.28
2023-03-27T09:58:28.211Z,6.78
2023-03-27T10:01:16.297Z,5.90
2023-03-27T10:03:56.750Z,5.88
2023-03-27T10:06:48.030Z,6.18
2023-03-27T10:09:28.188Z,15.20
2023-03-27T10:12:07.344Z,5.80
2023-03-27T10:14:38.674Z,5.32
2023-03-27T10:17:07.067Z,5.63
2023-03-27T10:19:37.155Z,5.50
2023-03-27T10:22:38.908Z,6.40
2023-03-27T10:25:17.910Z,5.68
2023-03-27T10:28:29.534Z,5.38
2023-03-27T10:31:33.696Z,6.35
2023-03-27T10:34:06.756Z,5.78
2023-03-27T10:36:56.929Z,5.07
2023-03-27T10:39:28.077Z,4.43
2023-03-27T10:42:10.717Z,4.78
2023-03-27T10:44:43.554Z,4.80
2023-03-27T10:47:19.152Z,4.95
2023-03-27T10:50:12.182Z,4.97
2023-03-27T10:52:43.904Z,5.07
2023-03-27T10:55:36.638Z,4.93
2023-03-27T11:00:40.959Z,5.53
2023-03-27T11:03:25.610Z,4.80
2023-03-27T11:05:58.635Z,4.63
2023-03-27T11:08:54.635Z,4.78
2023-03-27T11:11:31.012Z,5.25
2023-03-27T11:14:02.566Z,4.32
2023-03-27T11:16:43.297Z,4.22
2023-03-27T11:19:42.960Z,5.03
2023-03-27T11:22:32.633Z,4.35
2023-03-27T11:25:21.596Z,4.22
2023-03-27T11:28:01.440Z,3.90
2023-03-27T11:30:45.629Z,4.40
2023-03-27T11:33:27.718Z,4.20
2023-03-27T11:36:04.448Z,4.25
2023-03-27T11:38:57.978Z,3.88
2023-03-27T11:41:27.027Z,4.07
2023-03-27T11:43:54.322Z,4.03
2023-03-27T11:47:26.915Z,3.42
2023-03-27T11:50:35.193Z,3.28
2023-03-27T11:53:41.219Z,3.40
2023-03-27T11:56:52.219Z,2.75
2023-03-27T11:59:38.468Z,2.90
2023-03-27T12:02:24.414Z,3.35
2023-03-27T12:05:20.164Z,2.90
2023-03-27T12:08:22.810Z,3.40
2023-03-27T12:10:52.700Z,3.60
2023-03-27T12:14:14.049Z,3.63
2023-03-27T12:17:20.006Z,3.47
2023-03-27T12:20:24.598Z,3.38
2023-03-27T12:23:03.063Z,2.90
2023-03-27T12:26:20.003Z,4.90
2023-03-27T12:28:58.436Z,3.60
2023-03-27T12:32:07.973Z,3.08
2023-03-27T12:34:53.374Z,3.53
2023-03-27T12:37:31.036Z,2.80
2023-03-27T12:39:59.921Z,2.35
2023-03-27T12:42:44.171Z,2.55
2023-03-27T12:45:24.609Z,2.60
2023-03-27T12:48:10.658Z,2.45
2023-03-27T12:50:44.361Z,2.35
2023-03-27T12:53:20.875Z,2.17
2023-03-27T12:56:16.249Z,3.20
2023-03-27T12:58:45.807Z,2.17
2023-03-27T13:01:38.856Z,2.43
2023-03-27T13:04:29.744Z,2.58
2023-03-27T13:07:16.431Z,3.20
2023-03-27T13:10:53.833Z,2.55
2023-03-27T13:13:21.782Z,2.70
2023-03-27T13:15:55.686Z,2.60
2023-03-27T13:19:03.698Z,2.03
2023-03-27T13:21:56.610Z,2.50
2023-03-27T13:24:42.972Z,2.03
2023-03-27T13:27:44.644Z,1.98
2023-03-27T13:30:47.186Z,1.50
2023-03-27T13:33:45.354Z,1.98
2023-03-27T13:36:20.674Z,2.50
2023-03-27T13:38:55.023Z,2.10
2023-03-27T13:41:43.732Z,1.85
2023-03-27T13:44:52.105Z,1.77
2023-03-27T13:47:59.515Z,1.65
2023-03-27T13:50:54.375Z,1.75
2023-03-27T13:54:00.121Z,1.67
2023-03-27T13:57:05.740Z,1.50
2023-03-27T14:00:15.528Z,1.48
2023-03-27T14:03:22.195Z,1.40
2023-03-27T14:06:06.068Z,1.45
2023-03-27T14:09:25.483Z,1.50
2023-03-27T14:12:35.935Z,1.98
2023-03-27T14:15:25.266Z,1.10
2023-03-27T14:18:41.050Z,1.60
2023-03-27T14:21:12.053Z,1.10
2023-03-27T14:23:53.051Z,1.20
2023-03-27T14:26:33.946Z,1.50
2023-03-27T14:29:02.114Z,1.40
2023-03-27T14:31:44.404Z,1.30
2023-03-27T14:34:30.334Z,1.33
2023-03-27T14:37:31.087Z,1.40
2023-03-27T14:40:18.344Z,1.48
2023-03-27T14:42:46.861Z,1.65
2023-03-27T14:45:20.648Z,1.73
2023-03-27T14:47:51.706Z,1.70
2023-03-27T14:50:20.162Z,1.70
2023-03-27T14:52:55.516Z,1.80
2023-03-27T14:55:39.966Z,1.70
2023-03-27T14:58:46.565Z,1.60
2023-03-27T15:01:17.172Z,1.88
2023-03-27T15:03:49.776Z,1.77
2023-03-27T15:06:20.981Z,1.83
2023-03-27T15:08:55.790Z,1.73
2023-03-27T15:11:59.071Z,1.88
2023-03-27T15:14:32.192Z,1.70
2023-03-27T15:17:07.267Z,1.50
2023-03-27T15:19:53.724Z,1.90
2023-03-27T15:22:35.262Z,1.80
2023-03-27T15:25:05.548Z,1.73
2023-03-27T15:27:35.229Z,2.15
2023-03-27T15:30:08.168Z,1.80
2023-03-27T15:32:44.692Z,1.52
2023-03-27T15:35:21.805Z,1.67
2023-03-27T15:37:49.150Z,1.67
2023-03-27T15:40:36.652Z,1.70
2023-03-27T15:43:06.696Z,1.50
2023-03-27T15:45:41.432Z,1.67
2023-03-27T15:48:23.222Z,2.00
2023-03-27T15:51:04.330Z,1.70
2023-03-27T15:53:46.996Z,1.35
2023-03-27T15:56:21.842Z,1.65
2023-03-27T15:58:55.040Z,1.67
2023-03-27T16:01:31.102Z,1.90
2023-03-27T16:04:03.333Z,1.70
2023-03-27T16:06:40.860Z,1.80
2023-03-27T16:09:19.788Z,1.55
2023-03-27T16:11:47.697Z,1.70
2023-03-27T16:14:36.839Z,2.15
2023-03-27T16:17:14.812Z,2.20
2023-03-27T16:19:58.311Z,1.50
2023-03-27T16:22:30.581Z,1.70
2023-03-27T16:24:58.642Z,2.15
2023-03-27T16:27:28.716Z,1.98
2023-03-27T16:29:56.239Z,1.95
2023-03-27T16:32:23.772Z,2.00
2023-03-27T16:34:54.168Z,1.90
2023-03-27T16:37:23.101Z,1.90
2023-03-27T16:39:50.611Z,2.00
2023-03-27T16:42:20.476Z,1.83
2023-03-27T16:44:48.835Z,1.88
2023-03-27T16:47:16.535Z,1.75
2023-03-27T16:49:43.953Z,2.65
2023-03-27T16:52:11.456Z,2.08
2023-03-27T16:54:38.834Z,2.53
2023-03-27T16:57:06.195Z,2.95
2023-03-27T16:59:33.556Z,2.30
2023-03-27T17:02:01.170Z,2.50
2023-03-27T17:04:28.673Z,2.40
2023-03-27T17:06:56.031Z,2.47
2023-03-27T17:09:23.372Z,2.35
2023-03-27T17:11:50.965Z,2.65
2023-03-27T17:14:18.316Z,2.97
2023-03-27T17:16:45.900Z,3.10
2023-03-27T17:19:13.404Z,2.72
2023-03-27T17:21:40.741Z,3.67
2023-03-27T17:24:09.134Z,3.38
2023-03-27T17:26:36.711Z,3.17
2023-03-27T17:29:06.007Z,3.33
2023-03-27T17:31:33.920Z,12.05
2023-03-27T17:34:01.392Z,3.38
2023-03-27T17:36:40.168Z,3.53
2023-03-27T17:39:10.401Z,3.38
2023-03-27T17:41:37.729Z,3.70
2023-03-27T17:44:07.412Z,3.47
2023-03-27T17:46:35.505Z,3.42
2023-03-27T17:49:02.904Z,3.03
2023-03-27T17:51:30.296Z,2.63
2023-03-27T17:53:57.859Z,2.30
2023-03-27T17:56:25.385Z,2.42
2023-03-27T17:58:53.401Z,2.60
2023-03-27T18:01:21.641Z,1.67
2023-03-27T18:03:49.412Z,1.70
2023-03-27T18:06:17.669Z,2.00
2023-03-27T18:08:45.798Z,2.20
2023-03-27T18:11:14.252Z,2.42
2023-03-27T18:13:42.425Z,2.20
2023-03-27T18:16:13.003Z,2.60
2023-03-27T18:18:40.410Z,2.80
2023-03-27T18:21:08.746Z,3.17
2023-03-27T18:23:38.384Z,3.38
2023-03-27T18:26:13.626Z,3.47
2023-03-27T18:28:40.959Z,3.42
2023-03-27T18:31:15.828Z,3.60
2023-03-27T18:33:43.203Z,3.70
2023-03-27T18:36:11.881Z,3.00
2023-03-27T18:38:40.306Z,3.70
2023-03-27T18:41:08.456Z,4.03
2023-03-27T18:43:36.170Z,3.67
2023-03-27T18:46:05.358Z,3.67
2023-03-27T18:48:33.057Z,3.10
2023-03-27T18:51:02.711Z,4.20
2023-03-27T18:53:30.880Z,4.15
2023-03-27T18:55:58.783Z,3.92
2023-03-27T18:58:27.672Z,4.38
2023-03-27T19:00:56.825Z,4.28
2023-03-27T19:03:26.255Z,3.88
2023-03-27T19:05:53.763Z,4.30
2023-03-27T19:08:21.367Z,4.10
2023-03-27T19:10:48.958Z,4.50
2023-03-27T19:13:34.731Z,4.65
2023-03-27T19:16:31.316Z,4.40
2023-03-27T19:19:17.011Z,4.15
2023-03-27T19:21:53.176Z,5.13
2023-03-27T19:26:54.398Z,3.85
2023-03-27T19:29:21.712Z,4.15
2023-03-27T19:31:51.805Z,3.70
2023-03-27T19:34:21.882Z,4.43
2023-03-27T19:36:52.235Z,3.78
2023-03-27T19:39:19.908Z,3.72
2023-03-27T19:41:48.551Z,3.50
2023-03-27T19:44:16.610Z,3.22
2023-03-27T19:46:44.696Z,3.42
2023-03-27T19:49:16.171Z,2.88
2023-03-27T19:51:50.336Z,3.13
2023-03-27T19:54:17.791Z,3.10
2023-03-27T19:56:45.430Z,2.95
2023-03-27T19:59:20.727Z,4.25
2023-03-27T20:01:55.542Z,2.60
2023-03-27T20:04:22.889Z,3.30
2023-03-27T20:06:50.206Z,4.28
2023-03-27T20:09:18.883Z,3.38
2023-03-27T20:11:47.136Z,3.28
2023-03-27T20:14:14.481Z,3.25
2023-03-27T20:16:41.908Z,3.50
2023-03-27T20:19:09.423Z,3.38
2023-03-27T20:21:40.310Z,3.35
2023-03-27T20:24:12.962Z,3.67
2023-03-27T20:26:48.297Z,4.15
2023-03-27T20:29:22.770Z,3.85
2023-03-27T20:31:50.335Z,3.65
2023-03-27T20:34:19.414Z,4.13
2023-03-27T20:36:47.578Z,3.58
2023-03-27T20:39:47.432Z,3.43
2023-03-27T20:42:15.535Z,3.97
2023-03-27T20:44:46.687Z,4.15
2023-03-27T20:47:14.978Z,3.97
2023-03-27T20:49:45.757Z,3.63
2023-03-27T20:52:14.876Z,3.90
2023-03-27T20:54:42.316Z,4.32
2023-03-27T20:57:11.679Z,4.10
2023-03-27T20:59:39.248Z,4.43
2023-03-27T21:02:06.770Z,3.80
2023-03-27T21:04:34.260Z,4.57
2023-03-27T21:07:01.699Z,4.07
2023-03-27T21:09:29.100Z,4.82
2023-03-27T21:11:56.457Z,4.10
2023-03-27T21:14:23.833Z,4.03
2023-03-27T21:16:51.429Z,4.35
2023-03-27T21:19:22.059Z,5.20
2023-03-27T21:21:50.175Z,4.75
2023-03-27T21:24:18.006Z,4.78
2023-03-27T21:26:47.078Z,5.22
2023-03-27T21:29:15.639Z,4.70
2023-03-27T21:31:43.127Z,4.50
2023-03-27T21:34:10.859Z,4.93
2023-03-27T21:36:38.756Z,4.88
2023-03-27T21:39:06.648Z,4.57
2023-03-27T21:41:34.097Z,4.53
2023-03-27T21:44:01.483Z,4.75
2023-03-27T21:46:28.858Z,4.50
2023-03-27T21:48:56.261Z,4.50
2023-03-27T21:51:23.605Z,4.47
2023-03-27T21:53:51.057Z,3.75
2023-03-27T21:56:18.388Z,4.10
2023-03-27T21:58:45.877Z,4.13
2023-03-27T22:01:13.269Z,3.72
2023-03-27T22:03:40.705Z,4.10
2023-03-27T22:06:12.276Z,4.40
2023-03-27T22:08:41.477Z,3.70
2023-03-27T22:11:09.045Z,3.70
2023-03-27T22:13:37.394Z,4.07
2023-03-27T22:16:12.355Z,3.60
2023-03-27T22:18:39.987Z,3.90
2023-03-27T22:21:18.667Z,3.97
2023-03-27T22:23:46.403Z,3.55
2023-03-27T22:26:13.866Z,3.63
2023-03-27T22:28:41.585Z,3.72
2023-03-27T22:31:09.240Z,3.72
2023-03-27T22:33:37.136Z,3.72
2023-03-27T22:36:05.649Z,3.63
2023-03-27T22:38:33.624Z,4.20
2023-03-27T22:41:01.100Z,4.30
2023-03-27T22:43:28.806Z,4.03
2023-03-27T22:45:56.499Z,3.40
2023-03-27T22:48:23.897Z,3.70
2023-03-27T22:50:55.361Z,3.65
2023-03-27T22:53:23.138Z,4.10
2023-03-27T22:55:51.021Z,4.10
2023-03-27T22:58:18.397Z,4.25
2023-03-27T23:00:46.452Z,4.30
2023-03-27T23:03:14.270Z,4.47
2023-03-27T23:05:42.648Z,4.43
2023-03-27T23:08:10.095Z,4.65
2023-03-27T23:10:37.420Z,3.47
2023-03-27T23:13:04.881Z,3.92
2023-03-27T23:15:32.169Z,4.15
2023-03-27T23:17:59.618Z,3.90
2023-03-27T23:20:27.338Z,3.60
2023-03-27T23:22:54.982Z,3.60
2023-03-27T23:25:22.320Z,3.80
2023-03-27T23:27:49.640Z,3.60
2023-03-27T23:30:17.094Z,4.20
2023-03-27T23:32:44.497Z,4.20
2023-03-27T23:35:12.187Z,3.95
2023-03-27T23:37:39.575Z,4.63
2023-03-27T23:40:07.632Z,4.05
2023-03-27T23:42:34.927Z,4.28
2023-03-27T23:45:02.250Z,4.22
2023-03-27T23:47:29.618Z,4.65
2023-03-27T23:49:57.115Z,4.53
2023-03-27T23:52:24.525Z,4.57
2023-03-27T23:54:51.844Z,4.18
2023-03-27T23:57:19.236Z,4.95
2023-03-27T23:59:46.544Z,4.50
